createdAt,value
2017-08-29T00:01:33.163Z,97.10
2017-08-29T00:04:00.722Z,97.20
2017-08-29T00:06:28.192Z,97.10
2017-08-29T00:08:55.669Z,97.30
2017-08-29T00:11:23.127Z,97.10
2017-08-29T00:13:51.480Z,96.90
2017-08-29T00:16:18.939Z,97.30
2017-08-29T00:18:46.401Z,97.30
2017-08-29T00:21:13.884Z,96.90
2017-08-29T00:23:41.346Z,97.10
2017-08-29T00:26:08.815Z,96.70
2017-08-29T00:28:36.279Z,97.30
2017-08-29T00:31:03.746Z,97.80
2017-08-29T00:33:31.214Z,97.50
2017-08-29T00:35:58.699Z,97.40
2017-08-29T00:38:26.158Z,97.70
2017-08-29T00:40:53.624Z,97.20
2017-08-29T00:43:21.108Z,97.40
2017-08-29T00:45:48.604Z,97.70
2017-08-29T00:48:16.083Z,97.90
2017-08-29T00:50:43.551Z,97.80
2017-08-29T00:53:11.018Z,97.60
2017-08-29T00:55:38.495Z,97.80
2017-08-29T00:58:06.735Z,98.30
2017-08-29T01:00:34.219Z,98.30
2017-08-29T01:03:01.691Z,97.60
2017-08-29T01:05:29.175Z,97.70
2017-08-29T01:07:56.640Z,97.20
2017-08-29T01:10:24.114Z,97.20
2017-08-29T01:12:51.579Z,97.70
2017-08-29T01:15:19.059Z,97.50
2017-08-29T01:17:46.538Z,97.50
2017-08-29T01:20:13.998Z,96.80
2017-08-29T01:22:41.487Z,97.30
2017-08-29T01:25:08.947Z,97.40
2017-08-29T01:27:36.410Z,98.40
2017-08-29T01:30:03.886Z,98.50
2017-08-29T01:32:31.351Z,97.70
2017-08-29T01:34:58.823Z,99.60
2017-08-29T01:37:27.059Z,98.80
2017-08-29T01:39:54.539Z,98.80
2017-08-29T01:42:22.022Z,99.90
2017-08-29T01:44:49.498Z,98.50
2017-08-29T01:47:16.963Z,98.30
2017-08-29T01:49:44.435Z,98.90
2017-08-29T01:52:11.917Z,99.70
2017-08-29T01:54:39.374Z,99.90
2017-08-29T01:57:06.863Z,99.90
2017-08-29T01:59:34.324Z,99.90
2017-08-29T02:02:01.896Z,99.90
2017-08-29T02:04:29.379Z,99.90
2017-08-29T02:06:56.847Z,99.90
2017-08-29T02:09:24.316Z,99.90
2017-08-29T02:11:51.778Z,99.50
2017-08-29T02:14:19.331Z,98.70
2017-08-29T02:16:46.811Z,98.30
2017-08-29T02:19:15.034Z,98.80
2017-08-29T02:21:42.517Z,98.70
2017-08-29T02:24:09.974Z,98.70
2017-08-29T02:26:37.458Z,99.20
2017-08-29T02:29:04.937Z,99.30
2017-08-29T02:31:32.499Z,99.70
2017-08-29T02:33:59.978Z,99.90
2017-08-29T02:36:27.435Z,99.90
2017-08-29T02:38:54.922Z,99.90
2017-08-29T02:41:22.375Z,99.70
2017-08-29T02:43:50.288Z,99.20
2017-08-29T02:46:17.771Z,99.90
2017-08-29T02:48:45.227Z,99.90
2017-08-29T02:51:12.714Z,99.90
2017-08-29T02:53:40.179Z,99.90
2017-08-29T02:56:07.643Z,99.90
2017-08-29T02:58:35.130Z,99.90
2017-08-29T03:01:02.584Z,99.90
2017-08-29T03:03:30.065Z,99.90
2017-08-29T03:05:57.534Z,99.90
2017-08-29T03:08:25.007Z,99.90
2017-08-29T03:10:52.478Z,99.90
2017-08-29T03:13:19.958Z,99.90
2017-08-29T03:15:47.435Z,99.90
2017-08-29T03:18:14.906Z,99.90
2017-08-29T03:20:42.382Z,99.90
2017-08-29T03:23:09.854Z,99.90
2017-08-29T03:25:38.335Z,99.90
2017-08-29T03:28:05.810Z,99.90
2017-08-29T03:30:33.308Z,99.90
2017-08-29T03:33:00.768Z,99.90
2017-08-29T03:35:28.231Z,99.90
2017-08-29T03:37:55.720Z,99.90
2017-08-29T03:40:23.187Z,99.90
2017-08-29T03:42:51.435Z,99.90
2017-08-29T03:45:18.900Z,99.90
2017-08-29T03:47:46.358Z,99.90
2017-08-29T03:50:13.839Z,99.90
2017-08-29T03:52:41.416Z,99.90
2017-08-29T03:55:08.887Z,99.90
2017-08-29T03:57:36.351Z,99.90
2017-08-29T04:00:03.830Z,99.90
2017-08-29T04:02:31.308Z,99.90
2017-08-29T04:04:58.762Z,99.90
2017-08-29T04:07:26.226Z,99.90
2017-08-29T04:09:53.698Z,99.90
2017-08-29T04:12:21.162Z,99.90
2017-08-29T04:14:48.632Z,99.90
2017-08-29T04:17:16.152Z,99.90
2017-08-29T04:19:43.618Z,99.90
2017-08-29T04:22:11.079Z,99.90
2017-08-29T04:24:38.572Z,99.90
2017-08-29T04:27:06.036Z,99.90
2017-08-29T04:29:33.510Z,99.90
2017-08-29T04:32:00.983Z,99.90
2017-08-29T04:34:28.480Z,99.90
2017-08-29T04:36:55.931Z,99.90
2017-08-29T04:39:23.412Z,99.90
2017-08-29T04:41:50.875Z,99.90
2017-08-29T04:44:18.351Z,99.90
2017-08-29T04:46:45.814Z,99.90
2017-08-29T04:49:13.275Z,99.90
2017-08-29T04:51:40.758Z,99.90
2017-08-29T04:54:08.337Z,99.90
2017-08-29T04:56:35.815Z,99.90
2017-08-29T04:59:03.274Z,99.90
2017-08-29T05:01:30.743Z,99.90
2017-08-29T05:03:58.263Z,99.90
2017-08-29T05:06:25.815Z,99.90
2017-08-29T05:08:53.284Z,99.90
2017-08-29T05:11:20.756Z,99.90
2017-08-29T05:13:48.230Z,99.90
2017-08-29T05:16:15.702Z,99.90
2017-08-29T05:18:43.169Z,99.90
2017-08-29T05:21:10.655Z,99.90
2017-08-29T05:23:38.114Z,99.90
2017-08-29T05:26:05.579Z,99.90
2017-08-29T05:28:33.056Z,99.90
2017-08-29T05:31:00.514Z,99.90
2017-08-29T05:33:28.046Z,99.90
2017-08-29T05:35:55.564Z,99.90
2017-08-29T05:38:23.059Z,99.90
2017-08-29T05:40:50.518Z,99.90
2017-08-29T05:43:17.975Z,99.90
2017-08-29T05:45:45.460Z,99.90
2017-08-29T05:48:12.985Z,99.90
2017-08-29T05:50:40.439Z,99.90
2017-08-29T05:53:07.915Z,99.90
2017-08-29T05:55:35.419Z,99.90
2017-08-29T05:58:02.878Z,99.90
2017-08-29T06:00:31.189Z,99.90
2017-08-29T06:02:58.666Z,99.90
2017-08-29T06:05:26.126Z,99.90
2017-08-29T06:07:53.605Z,99.90
2017-08-29T06:10:21.084Z,99.90
2017-08-29T06:12:48.543Z,99.90
2017-08-29T06:15:16.034Z,99.90
2017-08-29T06:17:43.522Z,99.90
2017-08-29T06:20:10.991Z,99.90
2017-08-29T06:22:38.458Z,99.90
2017-08-29T06:25:05.944Z,99.70
2017-08-29T06:27:33.411Z,99.70
2017-08-29T06:30:00.866Z,99.50
2017-08-29T06:32:28.343Z,99.50
2017-08-29T06:34:55.846Z,99.60
2017-08-29T06:37:23.315Z,99.20
2017-08-29T06:39:50.793Z,98.60
2017-08-29T06:42:18.263Z,98.90
2017-08-29T06:44:45.809Z,98.10
2017-08-29T06:47:13.275Z,98.00
2017-08-29T06:49:40.743Z,98.10
2017-08-29T06:52:08.217Z,97.90
2017-08-29T06:54:35.675Z,97.50
2017-08-29T06:57:03.163Z,96.30
2017-08-29T06:59:30.621Z,96.30
2017-08-29T07:01:58.083Z,95.70
2017-08-29T07:04:25.559Z,95.00
2017-08-29T07:06:53.019Z,94.30
2017-08-29T07:09:20.496Z,94.80
2017-08-29T07:11:47.956Z,95.00
2017-08-29T07:14:16.199Z,95.00
2017-08-29T07:16:43.663Z,95.00
2017-08-29T07:19:11.136Z,95.00
2017-08-29T07:21:38.620Z,95.30
2017-08-29T07:24:06.080Z,95.10
2017-08-29T07:26:33.563Z,94.30
2017-08-29T07:29:01.043Z,93.50
2017-08-29T07:31:28.491Z,93.90
2017-08-29T07:33:55.982Z,94.10
2017-08-29T07:36:23.443Z,93.40
2017-08-29T07:38:50.926Z,93.30
2017-08-29T07:41:18.388Z,93.10
2017-08-29T07:43:45.864Z,92.90
2017-08-29T07:46:13.340Z,93.00
2017-08-29T07:48:40.812Z,92.20
2017-08-29T07:51:08.279Z,91.90
2017-08-29T07:53:35.735Z,91.90
2017-08-29T07:56:03.219Z,91.40
2017-08-29T07:58:30.666Z,91.70
2017-08-29T08:00:58.166Z,91.50
2017-08-29T08:03:25.626Z,90.80
2017-08-29T08:05:53.095Z,91.10
2017-08-29T08:08:20.579Z,90.80
2017-08-29T08:10:48.043Z,90.40
2017-08-29T08:13:15.502Z,90.00
2017-08-29T08:15:42.980Z,90.20
2017-08-29T08:18:10.450Z,90.30
2017-08-29T08:20:37.923Z,90.00
2017-08-29T08:23:05.411Z,89.20
2017-08-29T08:25:32.955Z,89.20
2017-08-29T08:28:00.435Z,87.90
2017-08-29T08:30:27.896Z,88.20
2017-08-29T08:32:55.359Z,89.00
2017-08-29T08:35:22.831Z,86.70
2017-08-29T08:37:50.296Z,87.90
2017-08-29T08:40:17.787Z,86.80
2017-08-29T08:42:45.252Z,85.40
2017-08-29T08:45:12.716Z,86.20
2017-08-29T08:47:40.187Z,86.70
2017-08-29T08:50:07.651Z,86.90
2017-08-29T08:52:35.128Z,84.00
2017-08-29T08:55:02.607Z,86.40
2017-08-29T08:57:30.847Z,82.80
2017-08-29T08:59:58.307Z,82.80
2017-08-29T09:02:25.814Z,81.10
2017-08-29T09:04:53.275Z,83.00
2017-08-29T09:07:20.756Z,82.60
2017-08-29T09:09:48.214Z,82.10
2017-08-29T09:12:15.675Z,80.50
2017-08-29T09:14:43.151Z,79.10
2017-08-29T09:17:10.653Z,78.70
2017-08-29T09:19:38.212Z,79.00
2017-08-29T09:22:05.670Z,78.50
2017-08-29T09:24:33.147Z,77.40
2017-08-29T09:27:00.616Z,77.10
2017-08-29T09:29:28.091Z,76.80
2017-08-29T09:31:55.701Z,76.60
2017-08-29T09:34:23.171Z,74.60
2017-08-29T09:36:50.635Z,75.60
2017-08-29T09:39:18.107Z,73.70
2017-08-29T09:41:45.564Z,73.20
2017-08-29T09:44:13.033Z,74.40
2017-08-29T09:46:40.500Z,72.60
2017-08-29T09:49:07.978Z,71.60
2017-08-29T09:51:35.448Z,70.20
2017-08-29T09:54:02.919Z,70.80
2017-08-29T09:56:30.411Z,70.20
2017-08-29T09:58:57.882Z,67.20
2017-08-29T10:01:25.361Z,64.80
2017-08-29T10:03:52.829Z,60.90
2017-08-29T10:06:20.297Z,56.90
2017-08-29T10:08:47.776Z,54.90
2017-08-29T10:11:15.256Z,55.40
2017-08-29T10:13:42.715Z,52.40
2017-08-29T10:16:10.186Z,50.70
2017-08-29T10:18:37.673Z,48.70
2017-08-29T10:21:05.167Z,49.00
2017-08-29T10:23:32.648Z,49.70
2017-08-29T10:26:00.107Z,48.90
2017-08-29T10:28:27.575Z,47.00
2017-08-29T10:30:55.065Z,45.40
2017-08-29T10:33:22.547Z,45.40
2017-08-29T10:35:50.007Z,43.60
2017-08-29T10:38:17.490Z,44.50
2017-08-29T10:40:44.958Z,45.40
2017-08-29T10:43:12.540Z,47.40
2017-08-29T10:45:40.100Z,46.60
2017-08-29T10:48:07.563Z,47.90
2017-08-29T10:50:35.039Z,47.80
2017-08-29T10:53:02.527Z,45.90
2017-08-29T10:55:29.988Z,43.90
2017-08-29T10:57:58.223Z,43.30
2017-08-29T11:00:25.714Z,43.30
2017-08-29T11:02:53.174Z,40.80
2017-08-29T11:05:20.655Z,42.60
2017-08-29T11:07:48.127Z,43.10
2017-08-29T11:10:15.582Z,42.90
2017-08-29T11:12:43.046Z,42.80
2017-08-29T11:15:10.499Z,42.70
2017-08-29T11:17:37.978Z,42.60
2017-08-29T11:20:05.454Z,41.70
2017-08-29T11:22:32.930Z,41.10
2017-08-29T11:25:00.390Z,42.50
2017-08-29T11:27:28.634Z,42.40
2017-08-29T11:29:56.103Z,42.40
2017-08-29T11:32:23.571Z,42.60
2017-08-29T11:34:51.063Z,41.80
2017-08-29T11:37:18.514Z,38.30
2017-08-29T11:39:46.001Z,39.80
2017-08-29T11:42:13.450Z,39.70
2017-08-29T11:44:40.918Z,41.00
2017-08-29T11:47:08.396Z,40.50
2017-08-29T11:49:35.864Z,40.00
2017-08-29T11:52:03.335Z,41.40
2017-08-29T11:54:30.790Z,40.90
2017-08-29T11:56:58.250Z,40.40
2017-08-29T11:59:25.723Z,41.00
2017-08-29T12:01:53.187Z,41.00
2017-08-29T12:04:20.655Z,42.20
2017-08-29T12:06:48.123Z,41.90
2017-08-29T12:09:15.596Z,41.40
2017-08-29T12:11:43.071Z,40.10
2017-08-29T12:14:10.539Z,39.70
2017-08-29T12:16:38.011Z,42.80
2017-08-29T12:19:05.488Z,42.30
2017-08-29T12:21:32.972Z,39.60
2017-08-29T12:24:00.425Z,38.60
2017-08-29T12:26:27.906Z,39.30
2017-08-29T12:28:55.371Z,37.40
2017-08-29T12:31:22.866Z,38.10
2017-08-29T12:33:50.328Z,37.30
2017-08-29T12:36:17.803Z,39.20
2017-08-29T12:38:45.258Z,39.10
2017-08-29T12:41:12.740Z,38.80
2017-08-29T12:43:40.219Z,37.90
2017-08-29T12:46:07.672Z,37.20
2017-08-29T12:48:35.136Z,36.60
2017-08-29T12:51:02.618Z,36.80
2017-08-29T12:53:30.079Z,37.30
2017-08-29T12:55:57.540Z,38.80
2017-08-29T12:58:25.005Z,37.80
2017-08-29T13:00:52.482Z,38.40
2017-08-29T13:03:19.951Z,36.70
2017-08-29T13:05:47.420Z,35.80
2017-08-29T13:08:14.891Z,37.00
2017-08-29T13:10:42.364Z,37.70
2017-08-29T13:13:09.831Z,36.50
2017-08-29T13:15:37.299Z,37.10
2017-08-29T13:18:04.752Z,38.40
2017-08-29T13:20:32.227Z,37.40
2017-08-29T13:22:59.702Z,37.40
2017-08-29T13:25:27.179Z,39.10
2017-08-29T13:27:54.638Z,38.00
2017-08-29T13:30:22.119Z,40.00
2017-08-29T13:32:49.582Z,41.00
2017-08-29T13:35:17.060Z,40.30
2017-08-29T13:37:44.522Z,40.60
2017-08-29T13:40:11.987Z,40.30
2017-08-29T13:42:39.594Z,41.10
2017-08-29T13:45:07.062Z,42.70
2017-08-29T13:47:34.531Z,42.60
2017-08-29T13:50:02.003Z,42.10
2017-08-29T13:52:29.467Z,41.50
2017-08-29T13:54:56.943Z,41.40
2017-08-29T13:57:24.407Z,42.10
2017-08-29T13:59:51.875Z,42.50
2017-08-29T14:02:19.351Z,41.50
2017-08-29T14:04:46.820Z,41.40
2017-08-29T14:07:14.376Z,41.60
2017-08-29T14:09:41.829Z,41.80
2017-08-29T14:12:09.290Z,42.30
2017-08-29T14:14:36.759Z,42.00
2017-08-29T14:17:04.224Z,42.10
2017-08-29T14:19:31.689Z,40.40
2017-08-29T14:21:59.151Z,41.80
2017-08-29T14:24:26.607Z,41.10
2017-08-29T14:26:54.082Z,40.70
2017-08-29T14:29:21.555Z,41.30
2017-08-29T14:31:49.031Z,41.10
2017-08-29T14:34:16.597Z,41.30
2017-08-29T14:36:44.060Z,39.50
2017-08-29T14:39:11.534Z,40.80
2017-08-29T14:41:38.982Z,40.20
2017-08-29T14:44:06.458Z,41.00
2017-08-29T14:46:45.799Z,41.00
2017-08-29T14:49:15.215Z,40.20
2017-08-29T14:51:42.664Z,40.20
2017-08-29T14:54:10.140Z,42.80
2017-08-29T14:56:37.629Z,42.00
2017-08-29T14:59:05.086Z,41.60
2017-08-29T15:01:32.573Z,40.90
2017-08-29T15:04:00.028Z,41.00
2017-08-29T15:06:27.473Z,41.30
2017-08-29T15:08:55.118Z,40.50
2017-08-29T15:11:22.591Z,40.20
2017-08-29T15:13:50.640Z,40.50
2017-08-29T15:16:18.093Z,40.20
2017-08-29T15:18:45.548Z,40.60
2017-08-29T15:21:13.022Z,40.60
2017-08-29T15:23:40.483Z,40.00
2017-08-29T15:26:07.965Z,42.30
2017-08-29T15:28:35.423Z,41.60
2017-08-29T15:31:02.886Z,42.20
2017-08-29T15:33:30.360Z,41.80
2017-08-29T15:35:57.844Z,40.80
2017-08-29T15:38:25.311Z,41.80
2017-08-29T15:40:52.781Z,42.10
2017-08-29T15:43:20.260Z,41.70
2017-08-29T15:45:47.722Z,42.10
2017-08-29T15:48:15.180Z,43.00
2017-08-29T15:50:42.651Z,41.00
2017-08-29T15:53:10.146Z,41.50
2017-08-29T15:55:38.817Z,42.80
2017-08-29T15:58:06.294Z,40.90
2017-08-29T16:00:33.756Z,41.30
2017-08-29T16:03:01.232Z,41.00
2017-08-29T16:05:28.705Z,40.50
2017-08-29T16:07:56.171Z,40.30
2017-08-29T16:10:23.635Z,40.80
2017-08-29T16:12:51.870Z,41.70
2017-08-29T16:15:19.344Z,41.70
2017-08-29T16:17:46.830Z,42.10
2017-08-29T16:20:14.301Z,42.80
2017-08-29T16:22:41.754Z,42.70
2017-08-29T16:25:09.227Z,41.00
2017-08-29T16:27:36.691Z,41.30
2017-08-29T16:30:04.172Z,40.20
2017-08-29T16:32:31.642Z,40.70
2017-08-29T16:34:59.123Z,42.60
2017-08-29T16:37:27.351Z,42.60
2017-08-29T16:39:54.814Z,42.60
2017-08-29T16:42:22.282Z,43.40
2017-08-29T16:44:49.740Z,43.20
2017-08-29T16:47:17.254Z,43.00
2017-08-29T16:49:44.710Z,43.50
2017-08-29T16:52:12.971Z,43.80
2017-08-29T16:54:40.454Z,44.30
2017-08-29T16:57:07.928Z,44.30
2017-08-29T16:59:35.395Z,43.30
2017-08-29T17:02:02.857Z,44.40
2017-08-29T17:04:30.327Z,43.90
2017-08-29T17:06:57.826Z,44.50
2017-08-29T17:09:25.299Z,45.80
2017-08-29T17:11:52.760Z,45.40
2017-08-29T17:14:20.247Z,47.00
2017-08-29T17:16:47.723Z,47.00
2017-08-29T17:19:15.183Z,47.70
2017-08-29T17:21:42.644Z,47.50
2017-08-29T17:24:10.139Z,47.90
2017-08-29T17:26:37.615Z,49.40
2017-08-29T17:29:05.079Z,50.00
2017-08-29T17:31:33.298Z,53.80
2017-08-29T17:34:00.779Z,53.80
2017-08-29T17:36:28.239Z,53.40
2017-08-29T17:38:55.729Z,53.50
2017-08-29T17:41:23.180Z,53.30
2017-08-29T17:43:50.690Z,55.10
2017-08-29T17:46:18.147Z,56.90
2017-08-29T17:48:45.708Z,55.80
2017-08-29T17:51:13.265Z,55.70
2017-08-29T17:53:40.732Z,58.70
2017-08-29T17:56:08.204Z,59.30
2017-08-29T17:58:35.668Z,58.10
2017-08-29T18:01:03.161Z,58.40
2017-08-29T18:03:30.645Z,58.90
2017-08-29T18:05:58.139Z,61.30
2017-08-29T18:08:25.591Z,59.70
2017-08-29T18:10:53.055Z,60.10
2017-08-29T18:13:20.527Z,59.90
2017-08-29T18:15:47.996Z,58.90
2017-08-29T18:18:15.463Z,64.30
2017-08-29T18:20:42.911Z,67.70
2017-08-29T18:23:10.410Z,67.20
2017-08-29T18:25:37.882Z,64.70
2017-08-29T18:28:05.371Z,68.10
2017-08-29T18:30:32.834Z,66.90
2017-08-29T18:33:01.068Z,66.10
2017-08-29T18:35:28.521Z,66.10
2017-08-29T18:37:55.998Z,69.10
2017-08-29T18:40:23.456Z,67.70
2017-08-29T18:42:50.931Z,67.40
2017-08-29T18:45:18.399Z,67.50
2017-08-29T18:47:45.871Z,72.50
2017-08-29T18:50:13.441Z,71.10
2017-08-29T18:52:40.919Z,68.70
2017-08-29T18:55:08.443Z,68.80
2017-08-29T18:57:35.907Z,70.30
2017-08-29T19:00:03.403Z,69.40
2017-08-29T19:02:30.967Z,69.80
2017-08-29T19:04:58.454Z,70.70
2017-08-29T19:07:26.043Z,69.60
2017-08-29T19:09:53.511Z,70.10
2017-08-29T19:12:21.067Z,69.70
2017-08-29T19:14:48.559Z,71.60
2017-08-29T19:17:16.055Z,71.50
2017-08-29T19:19:43.567Z,71.60
2017-08-29T19:22:11.044Z,71.20
2017-08-29T19:24:38.556Z,71.20
2017-08-29T19:27:06.033Z,71.50
2017-08-29T19:29:33.504Z,72.30
2017-08-29T19:32:00.980Z,73.10
2017-08-29T19:34:28.493Z,73.50
2017-08-29T19:36:55.989Z,74.60
2017-08-29T19:39:23.454Z,74.70
2017-08-29T19:41:50.951Z,74.80
2017-08-29T19:44:18.427Z,75.70
2017-08-29T19:46:45.957Z,75.90
2017-08-29T19:49:13.437Z,77.20
2017-08-29T19:51:40.895Z,77.00
2017-08-29T19:54:08.373Z,77.50
2017-08-29T19:56:35.847Z,77.60
2017-08-29T19:59:03.331Z,78.10
2017-08-29T20:01:30.898Z,79.00
2017-08-29T20:03:58.352Z,78.50
2017-08-29T20:06:26.692Z,78.50
2017-08-29T20:08:54.151Z,78.50
2017-08-29T20:11:21.623Z,79.10
2017-08-29T20:13:49.096Z,78.70
2017-08-29T20:16:16.660Z,78.90
2017-08-29T20:18:44.119Z,79.20
2017-08-29T20:21:11.618Z,79.60
2017-08-29T20:23:39.083Z,79.60
2017-08-29T20:26:06.545Z,79.60
2017-08-29T20:28:34.756Z,79.80
2017-08-29T20:31:02.237Z,80.60
2017-08-29T20:33:29.714Z,80.00
2017-08-29T20:35:57.229Z,79.50
2017-08-29T20:38:24.696Z,79.30
2017-08-29T20:40:52.181Z,79.10
2017-08-29T20:43:19.644Z,79.10
2017-08-29T20:45:47.110Z,79.30
2017-08-29T20:48:14.592Z,79.50
2017-08-29T20:50:42.044Z,79.50
2017-08-29T20:53:10.280Z,79.30
2017-08-29T20:55:37.751Z,79.30
2017-08-29T20:58:05.200Z,79.30
2017-08-29T21:00:32.713Z,79.60
2017-08-29T21:03:00.183Z,80.00
2017-08-29T21:05:27.676Z,80.10
2017-08-29T21:07:55.164Z,80.40
2017-08-29T21:10:22.665Z,80.60
2017-08-29T21:12:50.127Z,80.80
2017-08-29T21:15:17.580Z,80.90
2017-08-29T21:17:45.066Z,81.00
2017-08-29T21:20:12.577Z,81.00
2017-08-29T21:22:40.043Z,81.80
2017-08-29T21:25:07.523Z,81.80
2017-08-29T21:27:34.982Z,82.10
2017-08-29T21:30:02.468Z,82.30
2017-08-29T21:32:29.979Z,82.20
2017-08-29T21:34:57.446Z,82.50
2017-08-29T21:37:24.907Z,82.60
2017-08-29T21:39:52.375Z,82.80
2017-08-29T21:42:19.854Z,82.80
2017-08-29T21:44:47.334Z,83.20
2017-08-29T21:47:14.798Z,83.70
2017-08-29T21:49:42.283Z,83.80
2017-08-29T21:52:09.752Z,84.10
2017-08-29T21:54:37.227Z,84.40
2017-08-29T21:57:04.690Z,84.60
2017-08-29T21:59:32.151Z,85.00
2017-08-29T22:01:59.627Z,85.10
2017-08-29T22:04:27.099Z,85.30
2017-08-29T22:06:54.555Z,85.60
2017-08-29T22:09:22.038Z,85.80
2017-08-29T22:11:49.510Z,85.90
2017-08-29T22:14:17.021Z,85.80
2017-08-29T22:16:44.487Z,85.70
2017-08-29T22:19:11.975Z,85.70
2017-08-29T22:21:39.451Z,85.90
2017-08-29T22:24:06.907Z,86.20
2017-08-29T22:26:34.382Z,86.90
2017-08-29T22:29:01.867Z,87.20
2017-08-29T22:31:29.334Z,87.60
2017-08-29T22:33:56.795Z,87.90
2017-08-29T22:36:24.288Z,88.10
2017-08-29T22:38:51.786Z,88.00
2017-08-29T22:41:19.239Z,87.30
2017-08-29T22:43:46.723Z,87.00
2017-08-29T22:46:14.187Z,87.10
2017-08-29T22:48:41.668Z,87.00
2017-08-29T22:51:09.911Z,87.80
2017-08-29T22:53:37.370Z,87.70
2017-08-29T22:56:04.852Z,88.20
2017-08-29T22:58:32.327Z,88.40
2017-08-29T23:00:59.814Z,88.80
2017-08-29T23:03:27.263Z,88.60
2017-08-29T23:05:54.744Z,88.50
2017-08-29T23:08:22.218Z,88.70
2017-08-29T23:10:49.691Z,88.90
2017-08-29T23:13:17.172Z,89.00
2017-08-29T23:15:44.647Z,89.80
2017-08-29T23:18:12.205Z,89.60
2017-08-29T23:20:39.764Z,89.70
2017-08-29T23:23:07.240Z,89.70
2017-08-29T23:25:34.706Z,89.80
2017-08-29T23:28:02.172Z,89.60
2017-08-29T23:30:29.643Z,89.70
2017-08-29T23:32:57.119Z,90.00
2017-08-29T23:35:24.706Z,90.00
2017-08-29T23:37:52.160Z,90.20
2017-08-29T23:40:19.649Z,89.50
2017-08-29T23:42:48.111Z,89.70
2017-08-29T23:45:15.566Z,89.70
2017-08-29T23:47:43.048Z,90.00
2017-08-29T23:50:10.569Z,89.80
2017-08-29T23:52:38.040Z,90.00
2017-08-29T23:55:05.499Z,90.00
2017-08-29T23:57:32.971Z,90.10
